createdAt,value
2022-08-21T00:01:43.109Z,20.38
2022-08-21T00:04:10.865Z,20.51
2022-08-21T00:06:41.663Z,20.36
2022-08-21T00:09:09.615Z,20.12
2022-08-21T00:11:38.451Z,20.17
2022-08-21T00:14:07.737Z,20.12
2022-08-21T00:16:34.355Z,20.23
2022-08-21T00:19:00.982Z,20.10
2022-08-21T00:21:28.058Z,20.19
2022-08-21T00:23:54.670Z,20.21
2022-08-21T00:26:21.335Z,20.36
2022-08-21T00:28:49.785Z,20.42
2022-08-21T00:31:17.592Z,20.47
2022-08-21T00:33:45.791Z,20.37
2022-08-21T00:36:13.180Z,20.24
2022-08-21T00:38:40.641Z,19.93
2022-08-21T00:41:37.386Z,19.95
2022-08-21T00:43:57.474Z,20.02
2022-08-21T00:46:28.142Z,20.00
2022-08-21T00:48:57.259Z,19.97
2022-08-21T00:51:49.514Z,19.89
2022-08-21T00:54:19.581Z,19.79
2022-08-21T00:56:51.146Z,19.74
2022-08-21T00:59:21.260Z,19.77
2022-08-21T01:01:49.566Z,19.83
2022-08-21T01:04:17.386Z,19.81
2022-08-21T01:06:44.605Z,19.93
2022-08-21T01:09:11.777Z,19.61
2022-08-21T01:11:38.568Z,19.27
2022-08-21T01:14:05.233Z,18.85
2022-08-21T01:16:33.581Z,18.80
2022-08-21T01:19:00.357Z,19.09
2022-08-21T01:21:28.955Z,19.25
2022-08-21T01:23:57.247Z,19.12
2022-08-21T01:26:33.693Z,19.24
2022-08-21T01:29:07.987Z,19.40
2022-08-21T01:31:35.037Z,19.42
2022-08-21T01:34:01.776Z,19.42
2022-08-21T01:36:28.943Z,19.42
2022-08-21T01:38:56.947Z,19.32
2022-08-21T01:41:24.247Z,19.33
2022-08-21T01:43:51.000Z,19.34
2022-08-21T01:46:17.961Z,19.33
2022-08-21T01:48:44.809Z,19.26
2022-08-21T01:51:12.631Z,19.27
2022-08-21T01:53:39.556Z,19.33
2022-08-21T01:56:11.903Z,19.33
2022-08-21T01:58:41.952Z,19.36
2022-08-21T02:01:10.305Z,19.27
2022-08-21T02:03:37.985Z,19.14
2022-08-21T02:06:06.459Z,19.21
2022-08-21T02:08:33.954Z,19.16
2022-08-21T02:11:01.122Z,19.10
2022-08-21T02:13:27.836Z,19.11
2022-08-21T02:15:54.482Z,18.99
2022-08-21T02:18:21.206Z,18.69
2022-08-21T02:20:49.553Z,18.89
2022-08-21T02:23:26.765Z,18.94
2022-08-21T02:25:55.032Z,18.87
2022-08-21T02:28:22.383Z,18.84
2022-08-21T02:30:50.023Z,18.88
2022-08-21T02:33:17.330Z,18.68
2022-08-21T02:35:45.344Z,18.62
2022-08-21T02:38:15.277Z,18.68
2022-08-21T02:40:48.433Z,18.67
2022-08-21T02:43:19.744Z,18.56
2022-08-21T02:45:47.445Z,18.49
2022-08-21T02:48:17.562Z,18.47
2022-08-21T02:50:48.502Z,18.41
2022-08-21T02:53:17.412Z,18.41
2022-08-21T02:55:49.429Z,18.47
2022-08-21T02:58:20.072Z,18.55
2022-08-21T03:00:47.452Z,18.43
2022-08-21T03:03:15.452Z,18.11
2022-08-21T03:05:44.061Z,18.16
2022-08-21T03:08:12.912Z,18.41
2022-08-21T03:10:42.035Z,18.36
2022-08-21T03:13:08.955Z,18.02
2022-08-21T03:15:35.666Z,17.78
2022-08-21T03:18:05.567Z,17.91
2022-08-21T03:20:33.404Z,18.16
2022-08-21T03:23:01.458Z,18.05
2022-08-21T03:25:39.742Z,17.81
2022-08-21T03:28:13.199Z,17.88
2022-08-21T03:30:45.719Z,18.05
2022-08-21T03:33:15.223Z,18.20
2022-08-21T03:35:48.057Z,18.23
2022-08-21T03:38:14.832Z,18.16
2022-08-21T03:40:42.990Z,18.06
2022-08-21T03:43:10.297Z,18.17
2022-08-21T03:45:37.208Z,18.05
2022-08-21T03:48:05.729Z,17.85
2022-08-21T03:50:35.597Z,17.71
2022-08-21T03:53:08.465Z,17.80
2022-08-21T03:55:44.142Z,18.01
2022-08-21T03:58:16.674Z,17.72
2022-08-21T04:00:46.796Z,17.36
2022-08-21T04:03:13.631Z,17.57
2022-08-21T04:05:40.458Z,17.63
2022-08-21T04:08:07.611Z,17.70
2022-08-21T04:10:37.697Z,17.82
2022-08-21T04:13:05.714Z,17.74
2022-08-21T04:15:32.483Z,17.87
2022-08-21T04:17:59.836Z,17.85
2022-08-21T04:20:27.083Z,17.72
2022-08-21T04:22:54.801Z,17.48
2022-08-21T04:25:23.580Z,17.54
2022-08-21T04:27:50.644Z,17.61
2022-08-21T04:30:17.832Z,17.74
2022-08-21T04:32:46.295Z,17.88
2022-08-21T04:35:14.318Z,17.46
2022-08-21T04:37:42.231Z,17.08
2022-08-21T04:40:11.802Z,17.07
2022-08-21T04:42:45.636Z,17.33
2022-08-21T04:45:25.280Z,17.43
2022-08-21T04:47:53.940Z,17.44
2022-08-21T04:50:28.164Z,17.48
2022-08-21T04:53:06.294Z,17.49
2022-08-21T04:55:33.271Z,17.39
2022-08-21T04:58:00.497Z,17.45
2022-08-21T05:00:27.702Z,17.44
2022-08-21T05:02:57.469Z,17.45
2022-08-21T05:05:25.359Z,17.41
2022-08-21T05:07:54.017Z,17.37
2022-08-21T05:10:21.357Z,17.36
2022-08-21T05:12:48.103Z,17.42
2022-08-21T05:15:15.080Z,17.50
2022-08-21T05:17:42.660Z,17.43
2022-08-21T05:20:14.724Z,17.36
2022-08-21T05:22:42.202Z,17.55
2022-08-21T05:25:10.881Z,17.57
2022-08-21T05:27:39.571Z,17.51
2022-08-21T05:30:08.536Z,17.68
2022-08-21T05:32:36.551Z,17.76
2022-08-21T05:35:06.004Z,17.81
2022-08-21T05:37:32.989Z,17.96
2022-08-21T05:40:05.377Z,18.10
2022-08-21T05:42:54.395Z,18.22
2022-08-21T05:45:31.599Z,18.36
2022-08-21T05:48:17.353Z,18.29
2022-08-21T05:50:45.789Z,18.23
2022-08-21T05:53:13.772Z,18.25
2022-08-21T05:55:45.685Z,18.25
2022-08-21T05:58:19.138Z,18.30
2022-08-21T06:00:48.146Z,18.40
2022-08-21T06:03:21.835Z,18.47
2022-08-21T06:05:48.855Z,18.48
2022-08-21T06:08:17.745Z,18.49
2022-08-21T06:10:46.078Z,18.57
2022-08-21T06:13:13.658Z,18.71
2022-08-21T06:15:40.406Z,18.85
2022-08-21T06:18:07.419Z,18.90
2022-08-21T06:20:34.304Z,18.95
2022-08-21T06:23:01.703Z,18.86
2022-08-21T06:25:28.755Z,18.90
2022-08-21T06:28:05.527Z,18.95
2022-08-21T06:30:33.067Z,18.95
2022-08-21T06:33:00.134Z,18.88
2022-08-21T06:35:27.375Z,19.02
2022-08-21T06:37:53.962Z,19.05
2022-08-21T06:40:20.643Z,19.03
2022-08-21T06:42:48.550Z,19.08
2022-08-21T06:45:16.635Z,19.10
2022-08-21T06:47:43.243Z,19.16
2022-08-21T06:50:10.760Z,19.05
2022-08-21T06:52:38.256Z,19.17
2022-08-21T06:55:10.481Z,19.28
2022-08-21T06:57:37.338Z,19.38
2022-08-21T07:00:07.354Z,19.36
2022-08-21T07:02:34.717Z,19.28
2022-08-21T07:05:02.079Z,19.24
2022-08-21T07:07:45.389Z,19.16
2022-08-21T07:10:21.969Z,19.25
2022-08-21T07:12:51.054Z,19.44
2022-08-21T07:15:20.298Z,19.57
2022-08-21T07:17:46.906Z,19.61
2022-08-21T07:20:13.940Z,19.51
2022-08-21T07:22:41.938Z,19.62
2022-08-21T07:25:09.074Z,19.70
2022-08-21T07:27:35.800Z,19.92
2022-08-21T07:30:02.629Z,19.96
2022-08-21T07:32:29.549Z,19.98
2022-08-21T07:34:56.873Z,20.15
2022-08-21T07:37:23.598Z,20.36
2022-08-21T07:39:51.957Z,20.45
2022-08-21T07:42:18.722Z,20.37
2022-08-21T07:44:45.553Z,20.34
2022-08-21T07:47:12.358Z,20.30
2022-08-21T07:49:39.293Z,20.35
2022-08-21T07:52:06.127Z,20.31
2022-08-21T07:54:33.823Z,20.33
2022-08-21T07:57:01.930Z,20.34
2022-08-21T07:59:29.408Z,20.45
2022-08-21T08:01:57.475Z,20.40
2022-08-21T08:04:26.460Z,20.42
2022-08-21T08:06:53.945Z,20.34
2022-08-21T08:09:20.776Z,20.44
2022-08-21T08:11:47.596Z,20.51
2022-08-21T08:14:14.273Z,20.67
2022-08-21T08:16:40.972Z,20.74
2022-08-21T08:19:07.701Z,20.69
2022-08-21T08:21:35.248Z,20.67
2022-08-21T08:24:18.498Z,20.67
2022-08-21T08:26:46.997Z,20.65
2022-08-21T08:29:22.317Z,20.53
2022-08-21T08:31:49.096Z,20.64
2022-08-21T08:34:25.361Z,20.74
2022-08-21T08:36:52.476Z,20.77
2022-08-21T08:39:27.053Z,20.76
2022-08-21T08:42:33.573Z,20.83
2022-08-21T08:45:14.520Z,20.91
2022-08-21T08:47:46.328Z,21.05
2022-08-21T08:50:29.744Z,21.11
2022-08-21T08:53:05.818Z,20.99
2022-08-21T08:55:40.235Z,20.95
2022-08-21T08:58:09.754Z,21.01
2022-08-21T09:00:38.812Z,20.96
2022-08-21T09:03:05.522Z,21.04
2022-08-21T09:06:08.258Z,21.22
2022-08-21T09:08:59.527Z,21.36
2022-08-21T09:11:49.528Z,21.62
2022-08-21T09:14:16.271Z,21.54
2022-08-21T09:17:14.755Z,21.63
2022-08-21T09:20:12.738Z,21.52
2022-08-21T09:23:03.739Z,21.70
2022-08-21T09:25:46.651Z,21.70
2022-08-21T09:28:15.731Z,21.66
2022-08-21T09:30:43.030Z,21.78
2022-08-21T09:33:13.655Z,21.63
2022-08-21T09:36:00.222Z,21.65
2022-08-21T09:38:38.769Z,21.80
2022-08-21T09:41:11.160Z,21.71
2022-08-21T09:43:39.318Z,21.68
2022-08-21T09:46:12.504Z,21.68
2022-08-21T09:48:48.173Z,21.85
2022-08-21T09:51:21.493Z,22.04
2022-08-21T09:53:57.555Z,22.05
2022-08-21T09:56:54.065Z,22.05
2022-08-21T09:59:26.610Z,22.32
2022-08-21T10:01:55.320Z,22.60
2022-08-21T10:04:34.025Z,22.65
2022-08-21T10:07:13.490Z,22.57
2022-08-21T10:09:41.706Z,22.31
2022-08-21T10:12:21.393Z,22.18
2022-08-21T10:14:57.484Z,22.41
2022-08-21T10:17:36.444Z,22.48
2022-08-21T10:20:11.380Z,22.43
2022-08-21T10:23:03.438Z,22.25
2022-08-21T10:26:13.633Z,22.33
2022-08-21T10:28:49.146Z,22.39
2022-08-21T10:31:54.892Z,22.50
2022-08-21T10:34:33.645Z,22.64
2022-08-21T10:37:22.114Z,22.62
2022-08-21T10:40:10.046Z,22.61
2022-08-21T10:42:56.473Z,22.57
2022-08-21T10:45:45.055Z,22.74
2022-08-21T10:48:22.876Z,22.78
2022-08-21T10:50:56.598Z,22.85
2022-08-21T10:53:50.755Z,22.73
2022-08-21T10:56:29.523Z,22.78
2022-08-21T10:59:08.056Z,22.93
2022-08-21T11:01:47.511Z,22.97
2022-08-21T11:04:21.843Z,22.88
2022-08-21T11:06:58.002Z,23.03
2022-08-21T11:09:27.414Z,22.98
2022-08-21T11:12:10.916Z,22.91
2022-08-21T11:15:02.879Z,22.71
2022-08-21T11:17:45.050Z,22.89
2022-08-21T11:20:19.001Z,22.84
2022-08-21T11:23:03.006Z,23.09
2022-08-21T11:25:43.915Z,23.39
2022-08-21T11:28:21.525Z,23.29
2022-08-21T11:31:16.806Z,23.22
2022-08-21T11:34:11.067Z,23.10
2022-08-21T11:36:45.241Z,23.05
2022-08-21T11:39:48.650Z,23.12
2022-08-21T11:42:32.102Z,23.21
2022-08-21T11:45:32.467Z,23.33
2022-08-21T11:48:26.396Z,23.14
2022-08-21T11:50:54.955Z,23.07
2022-08-21T11:53:40.692Z,23.23
2022-08-21T11:56:22.996Z,23.39
2022-08-21T11:58:55.027Z,23.35
2022-08-21T12:01:36.624Z,23.55
2022-08-21T12:04:09.272Z,23.64
2022-08-21T12:06:42.574Z,23.65
2022-08-21T12:09:24.488Z,23.73
2022-08-21T12:12:03.878Z,23.69
2022-08-21T12:14:43.520Z,23.70
2022-08-21T12:17:22.379Z,23.81
2022-08-21T12:20:00.811Z,23.88
2022-08-21T12:22:39.845Z,23.93
2022-08-21T12:25:12.176Z,23.89
2022-08-21T12:27:52.680Z,23.85
2022-08-21T12:30:28.300Z,23.88
2022-08-21T12:32:59.863Z,23.92
2022-08-21T12:35:33.753Z,23.82
2022-08-21T12:38:09.493Z,23.95
2022-08-21T12:40:57.556Z,24.02
2022-08-21T12:43:33.942Z,24.22
2022-08-21T12:46:01.752Z,24.13
2022-08-21T12:48:34.376Z,24.06
2022-08-21T12:51:25.407Z,24.20
2022-08-21T12:53:57.882Z,24.31
2022-08-21T12:56:28.104Z,24.43
2022-08-21T12:59:03.969Z,24.47
2022-08-21T13:01:44.866Z,24.39
2022-08-21T13:04:14.044Z,24.35
2022-08-21T13:06:44.582Z,24.52
2022-08-21T13:09:15.920Z,24.42
2022-08-21T13:11:45.948Z,24.31
2022-08-21T13:14:26.979Z,24.29
2022-08-21T13:16:56.842Z,24.42
2022-08-21T13:19:25.025Z,24.41
2022-08-21T13:21:53.485Z,24.51
2022-08-21T13:24:42.471Z,24.50
2022-08-21T13:27:28.864Z,24.50
2022-08-21T13:30:10.871Z,24.33
2022-08-21T13:32:42.943Z,24.51
2022-08-21T13:35:13.250Z,24.69
2022-08-21T13:37:43.039Z,24.56
2022-08-21T13:40:19.788Z,24.67
2022-08-21T13:42:49.180Z,24.51
2022-08-21T13:45:28.373Z,24.49
2022-08-21T13:47:56.014Z,24.48
2022-08-21T13:50:25.695Z,24.45
2022-08-21T13:53:04.395Z,24.49
2022-08-21T13:55:44.035Z,24.52
2022-08-21T13:58:12.108Z,24.48
2022-08-21T14:00:51.505Z,24.39
2022-08-21T14:03:43.007Z,24.59
2022-08-21T14:06:20.132Z,24.77
2022-08-21T14:09:16.992Z,24.92
2022-08-21T14:11:43.814Z,24.98
2022-08-21T14:14:24.200Z,24.95
2022-08-21T14:17:24.449Z,25.02
2022-08-21T14:19:49.548Z,24.96
2022-08-21T14:22:35.787Z,24.76
2022-08-21T14:25:13.570Z,24.53
2022-08-21T14:27:45.829Z,24.41
2022-08-21T14:30:19.313Z,24.36
2022-08-21T14:32:48.506Z,24.28
2022-08-21T14:35:18.370Z,24.23
2022-08-21T14:37:53.854Z,24.23
2022-08-21T14:40:23.416Z,24.15
2022-08-21T14:42:52.909Z,24.24
2022-08-21T14:45:27.712Z,24.27
2022-08-21T14:47:55.643Z,24.34
2022-08-21T14:50:22.673Z,24.28
2022-08-21T14:52:50.181Z,24.31
2022-08-21T14:55:18.626Z,24.48
2022-08-21T14:57:48.962Z,24.59
2022-08-21T15:00:20.553Z,24.48
2022-08-21T15:02:47.524Z,24.54
2022-08-21T15:05:16.689Z,24.83
2022-08-21T15:07:53.198Z,24.74
2022-08-21T15:10:20.122Z,24.82
2022-08-21T15:12:46.917Z,25.02
2022-08-21T15:15:13.677Z,24.91
2022-08-21T15:17:48.147Z,24.94
2022-08-21T15:20:15.419Z,25.01
2022-08-21T15:22:42.083Z,25.03
2022-08-21T15:25:14.845Z,25.25
2022-08-21T15:27:41.482Z,25.38
2022-08-21T15:30:08.891Z,25.41
2022-08-21T15:32:35.535Z,25.41
2022-08-21T15:35:03.182Z,25.11
2022-08-21T15:37:30.025Z,25.18
2022-08-21T15:39:57.161Z,25.12
2022-08-21T15:42:27.762Z,24.96
2022-08-21T15:44:56.774Z,24.84
2022-08-21T15:47:28.368Z,24.89
2022-08-21T15:49:55.127Z,24.68
2022-08-21T15:52:22.399Z,24.72
2022-08-21T15:54:49.857Z,24.81
2022-08-21T15:57:24.758Z,25.17
2022-08-21T15:59:55.596Z,25.06
2022-08-21T16:02:26.393Z,24.97
2022-08-21T16:04:53.673Z,24.86
2022-08-21T16:07:20.999Z,24.79
2022-08-21T16:09:47.891Z,24.69
2022-08-21T16:12:21.829Z,24.69
2022-08-21T16:14:50.560Z,24.75
2022-08-21T16:17:17.433Z,24.69
2022-08-21T16:19:44.396Z,24.72
2022-08-21T16:22:11.025Z,24.74
2022-08-21T16:24:37.903Z,24.74
2022-08-21T16:27:08.131Z,24.66
2022-08-21T16:29:37.612Z,24.73
2022-08-21T16:32:05.734Z,24.73
2022-08-21T16:34:32.536Z,24.88
2022-08-21T16:36:59.194Z,24.90
2022-08-21T16:39:26.086Z,24.82
2022-08-21T16:41:52.766Z,24.77
2022-08-21T16:44:21.433Z,24.74
2022-08-21T16:46:48.272Z,24.87
2022-08-21T16:49:15.133Z,24.97
2022-08-21T16:51:41.796Z,24.90
2022-08-21T16:54:09.173Z,24.75
2022-08-21T16:56:39.792Z,24.74
2022-08-21T16:59:07.664Z,24.69
2022-08-21T17:01:36.951Z,24.81
2022-08-21T17:04:04.158Z,24.72
2022-08-21T17:06:31.169Z,24.76
2022-08-21T17:08:59.243Z,24.77
2022-08-21T17:11:37.826Z,24.66
2022-08-21T17:14:09.070Z,24.69
2022-08-21T17:16:36.869Z,24.71
2022-08-21T17:19:04.016Z,24.75
2022-08-21T17:21:30.727Z,24.74
2022-08-21T17:23:57.405Z,24.73
2022-08-21T17:26:25.139Z,24.76
2022-08-21T17:28:54.837Z,24.78
2022-08-21T17:31:22.719Z,24.66
2022-08-21T17:33:53.686Z,24.63
2022-08-21T17:36:26.118Z,24.57
2022-08-21T17:38:53.707Z,24.52
2022-08-21T17:41:21.199Z,24.56
2022-08-21T17:43:49.670Z,24.55
2022-08-21T17:46:20.792Z,24.57
2022-08-21T17:48:47.685Z,24.60
2022-08-21T17:51:15.443Z,24.57
2022-08-21T17:53:42.529Z,24.47
2022-08-21T17:56:09.616Z,24.37
2022-08-21T17:58:37.885Z,24.37
2022-08-21T18:01:05.826Z,24.37
2022-08-21T18:03:38.228Z,24.25
2022-08-21T18:06:06.287Z,24.17
2022-08-21T18:08:33.507Z,24.12
2022-08-21T18:11:00.945Z,23.95
2022-08-21T18:13:33.288Z,23.86
2022-08-21T18:16:01.112Z,23.91
2022-08-21T18:18:32.719Z,23.91
2022-08-21T18:20:59.473Z,23.92
2022-08-21T18:23:44.351Z,23.84
2022-08-21T18:26:14.453Z,23.71
2022-08-21T18:28:41.620Z,23.57
2022-08-21T18:31:10.733Z,23.49
2022-08-21T18:33:39.400Z,23.45
2022-08-21T18:36:10.272Z,23.39
2022-08-21T18:38:37.919Z,23.35
2022-08-21T18:41:10.068Z,23.30
2022-08-21T18:43:38.383Z,23.24
2022-08-21T18:46:05.289Z,23.19
2022-08-21T18:48:32.505Z,23.19
2022-08-21T18:50:59.709Z,23.14
2022-08-21T18:53:27.970Z,23.02
2022-08-21T18:55:57.161Z,23.09
2022-08-21T18:58:25.571Z,23.17
2022-08-21T19:00:54.087Z,23.14
2022-08-21T19:03:23.955Z,23.08
2022-08-21T19:05:52.970Z,22.99
2022-08-21T19:08:22.456Z,22.94
2022-08-21T19:10:51.115Z,22.86
2022-08-21T19:13:20.570Z,22.83
2022-08-21T19:15:52.981Z,22.78
2022-08-21T19:18:28.381Z,22.72
2022-08-21T19:20:56.063Z,22.72
2022-08-21T19:23:29.333Z,22.68
2022-08-21T19:26:00.682Z,22.64
2022-08-21T19:28:35.393Z,22.61
2022-08-21T19:31:34.015Z,22.59
2022-08-21T19:34:21.909Z,22.52
2022-08-21T19:36:48.728Z,22.51
2022-08-21T19:39:17.640Z,22.45
2022-08-21T19:44:36.961Z,22.41
2022-08-21T19:47:13.240Z,22.34
2022-08-21T19:49:50.726Z,21.99
2022-08-21T19:52:18.417Z,22.02
2022-08-21T19:54:46.407Z,22.07
2022-08-21T19:57:13.387Z,22.11
2022-08-21T19:59:41.337Z,22.11
2022-08-21T20:02:09.770Z,22.16
2022-08-21T20:04:36.912Z,22.19
2022-08-21T20:07:04.532Z,22.16
2022-08-21T20:09:36.825Z,22.19
2022-08-21T20:12:10.042Z,22.34
2022-08-21T20:14:44.323Z,22.36
2022-08-21T20:17:12.627Z,22.30
2022-08-21T20:19:41.951Z,22.42
2022-08-21T20:22:10.331Z,22.43
2022-08-21T20:24:37.104Z,22.30
2022-08-21T20:27:06.311Z,22.33
2022-08-21T20:29:38.968Z,22.34
2022-08-21T20:32:12.212Z,22.29
2022-08-21T20:34:55.520Z,22.26
2022-08-21T20:37:36.565Z,22.22
2022-08-21T20:40:11.153Z,22.25
2022-08-21T20:42:45.412Z,22.20
2022-08-21T20:45:18.663Z,22.14
2022-08-21T20:47:52.745Z,21.97
2022-08-21T20:50:22.525Z,21.76
2022-08-21T20:52:52.255Z,21.84
2022-08-21T20:55:29.401Z,21.95
2022-08-21T20:58:15.423Z,22.04
2022-08-21T21:00:43.309Z,21.94
2022-08-21T21:03:17.191Z,21.98
2022-08-21T21:06:04.582Z,21.87
2022-08-21T21:08:36.878Z,21.92
2022-08-21T21:11:16.981Z,21.91
2022-08-21T21:13:46.855Z,21.91
2022-08-21T21:16:27.318Z,21.95
2022-08-21T21:19:00.627Z,22.08
2022-08-21T21:21:37.809Z,22.06
2022-08-21T21:24:12.584Z,22.02
2022-08-21T21:26:52.152Z,22.02
2022-08-21T21:29:24.955Z,21.95
2022-08-21T21:31:54.202Z,22.03
2022-08-21T21:34:22.358Z,22.09
2022-08-21T21:37:05.120Z,21.94
2022-08-21T21:39:58.754Z,21.96
2022-08-21T21:42:31.466Z,21.96
2022-08-21T21:44:58.242Z,21.96
2022-08-21T21:47:39.878Z,21.98
2022-08-21T21:50:31.336Z,21.85
2022-08-21T21:53:13.496Z,21.82
2022-08-21T21:56:04.701Z,21.84
2022-08-21T21:58:41.399Z,21.79
2022-08-21T22:01:54.805Z,21.66
2022-08-21T22:04:33.127Z,21.57
2022-08-21T22:07:25.186Z,21.71
2022-08-21T22:09:56.546Z,21.66
2022-08-21T22:12:49.818Z,21.48
2022-08-21T22:15:26.354Z,21.39
2022-08-21T22:18:17.108Z,21.53
2022-08-21T22:20:52.804Z,21.49
2022-08-21T22:23:24.391Z,21.50
2022-08-21T22:25:58.558Z,21.43
2022-08-21T22:28:26.931Z,21.28
2022-08-21T22:31:10.892Z,21.14
2022-08-21T22:33:38.029Z,21.13
2022-08-21T22:36:20.758Z,21.22
2022-08-21T22:38:47.945Z,21.25
2022-08-21T22:41:27.966Z,21.24
2022-08-21T22:44:01.821Z,21.19
2022-08-21T22:46:50.014Z,21.10
2022-08-21T22:49:34.101Z,21.10
2022-08-21T22:52:21.126Z,21.04
2022-08-21T22:54:51.519Z,21.01
2022-08-21T22:57:27.316Z,21.03
2022-08-21T23:00:04.606Z,21.06
2022-08-21T23:02:31.349Z,20.94
2022-08-21T23:05:01.446Z,20.92
2022-08-21T23:07:43.714Z,20.89
2022-08-21T23:10:20.004Z,20.86
2022-08-21T23:12:54.214Z,20.77
2022-08-21T23:15:21.465Z,20.92
2022-08-21T23:18:25.586Z,20.90
2022-08-21T23:21:15.522Z,20.86
2022-08-21T23:24:29.088Z,20.77
2022-08-21T23:27:14.138Z,20.65
2022-08-21T23:30:12.322Z,20.67
2022-08-21T23:32:58.513Z,20.75
2022-08-21T23:36:10.391Z,20.77
2022-08-21T23:38:59.455Z,20.70
2022-08-21T23:41:57.907Z,20.69
2022-08-21T23:44:36.535Z,20.46
2022-08-21T23:47:38.453Z,20.28
2022-08-21T23:50:14.685Z,20.21
2022-08-21T23:52:54.242Z,20.08
2022-08-21T23:55:40.524Z,20.18
2022-08-21T23:58:25.217Z,20.31
